sensor_id;sensor_type;location;lat;lon;timestamp;P1;durP1;ratioP1;P2;durP2;ratioP2
11911;SDS011;6016;41.928;25.556;2023-03-01T00:02:14;25.30;;;7.50;;
11911;SDS011;6016;41.928;25.556;2023-03-01T00:04:41;28.92;;;10.57;;
11911;SDS011;6016;41.928;25.556;2023-03-01T00:07:08;31.27;;;9.68;;
11911;SDS011;6016;41.928;25.556;2023-03-01T00:09:37;30.00;;;9.50;;
11911;SDS011;6016;41.928;25.556;2023-03-01T00:12:05;40.13;;;11.00;;
11911;SDS011;6016;41.928;25.556;2023-03-01T00:14:32;38.88;;;12.00;;
11911;SDS011;6016;41.928;25.556;2023-03-01T00:16:59;39.42;;;11.85;;
11911;SDS011;6016;41.928;25.556;2023-03-01T00:19:27;43.00;;;13.95;;
11911;SDS011;6016;41.928;25.556;2023-03-01T00:21:53;40.08;;;12.90;;
11911;SDS011;6016;41.928;25.556;2023-03-01T00:24:20;37.70;;;13.40;;
11911;SDS011;6016;41.928;25.556;2023-03-01T00:26:48;43.70;;;14.18;;
11911;SDS011;6016;41.928;25.556;2023-03-01T00:31:47;29.88;;;10.75;;
11911;SDS011;6016;41.928;25.556;2023-03-01T00:34:13;28.50;;;9.68;;
11911;SDS011;6016;41.928;25.556;2023-03-01T00:36:40;28.33;;;9.85;;
11911;SDS011;6016;41.928;25.556;2023-03-01T00:39:09;32.75;;;10.23;;
11911;SDS011;6016;41.928;25.556;2023-03-01T00:41:37;27.00;;;9.95;;
11911;SDS011;6016;41.928;25.556;2023-03-01T00:44:06;35.88;;;12.05;;
11911;SDS011;6016;41.928;25.556;2023-03-01T00:46:33;38.55;;;12.10;;
11911;SDS011;6016;41.928;25.556;2023-03-01T00:49:00;50.10;;;13.45;;
11911;SDS011;6016;41.928;25.556;2023-03-01T00:51:27;55.65;;;15.85;;
11911;SDS011;6016;41.928;25.556;2023-03-01T00:53:55;57.88;;;15.93;;
11911;SDS011;6016;41.928;25.556;2023-03-01T00:56:23;53.85;;;14.88;;
11911;SDS011;6016;41.928;25.556;2023-03-01T00:58:49;56.40;;;16.60;;
11911;SDS011;6016;41.928;25.556;2023-03-01T01:01:19;55.25;;;15.27;;
11911;SDS011;6016;41.928;25.556;2023-03-01T01:03:49;51.90;;;14.98;;
11911;SDS011;6016;41.928;25.556;2023-03-01T01:06:17;59.47;;;16.40;;
11911;SDS011;6016;41.928;25.556;2023-03-01T01:08:45;65.60;;;18.05;;
11911;SDS011;6016;41.928;25.556;2023-03-01T01:11:12;48.05;;;14.98;;
11911;SDS011;6016;41.928;25.556;2023-03-01T01:13:39;54.08;;;16.23;;
11911;SDS011;6016;41.928;25.556;2023-03-01T01:16:07;57.33;;;15.98;;
11911;SDS011;6016;41.928;25.556;2023-03-01T01:18:35;49.58;;;15.63;;
11911;SDS011;6016;41.928;25.556;2023-03-01T01:21:06;49.15;;;16.17;;
11911;SDS011;6016;41.928;25.556;2023-03-01T01:23:33;40.95;;;13.55;;
11911;SDS011;6016;41.928;25.556;2023-03-01T01:26:04;37.08;;;14.00;;
11911;SDS011;6016;41.928;25.556;2023-03-01T01:28:32;28.73;;;11.80;;
11911;SDS011;6016;41.928;25.556;2023-03-01T01:30:59;27.25;;;11.07;;
11911;SDS011;6016;41.928;25.556;2023-03-01T01:33:26;22.85;;;9.95;;
11911;SDS011;6016;41.928;25.556;2023-03-01T01:35:54;23.30;;;10.95;;
11911;SDS011;6016;41.928;25.556;2023-03-01T01:38:21;25.17;;;10.27;;
11911;SDS011;6016;41.928;25.556;2023-03-01T01:40:48;23.42;;;10.57;;
11911;SDS011;6016;41.928;25.556;2023-03-01T01:43:18;23.08;;;10.40;;
11911;SDS011;6016;41.928;25.556;2023-03-01T01:45:47;24.98;;;10.30;;
11911;SDS011;6016;41.928;25.556;2023-03-01T01:48:15;25.60;;;10.93;;
11911;SDS011;6016;41.928;25.556;2023-03-01T01:50:45;23.00;;;10.27;;
11911;SDS011;6016;41.928;25.556;2023-03-01T01:53:17;23.92;;;11.07;;
11911;SDS011;6016;41.928;25.556;2023-03-01T01:55:47;21.60;;;10.18;;
11911;SDS011;6016;41.928;25.556;2023-03-01T01:58:18;22.57;;;10.57;;
11911;SDS011;6016;41.928;25.556;2023-03-01T02:00:47;21.80;;;10.02;;
11911;SDS011;6016;41.928;25.556;2023-03-01T02:03:17;19.40;;;9.32;;
11911;SDS011;6016;41.928;25.556;2023-03-01T02:05:47;18.02;;;8.43;;
11911;SDS011;6016;41.928;25.556;2023-03-01T02:08:22;16.92;;;8.07;;
11911;SDS011;6016;41.928;25.556;2023-03-01T02:10:55;16.73;;;8.10;;
11911;SDS011;6016;41.928;25.556;2023-03-01T02:13:24;15.55;;;7.97;;
11911;SDS011;6016;41.928;25.556;2023-03-01T02:15:52;13.13;;;7.50;;
11911;SDS011;6016;41.928;25.556;2023-03-01T02:18:20;12.18;;;6.55;;
11911;SDS011;6016;41.928;25.556;2023-03-01T02:20:50;14.82;;;7.68;;
11911;SDS011;6016;41.928;25.556;2023-03-01T02:23:27;14.18;;;7.18;;
11911;SDS011;6016;41.928;25.556;2023-03-01T02:25:57;12.63;;;6.70;;
11911;SDS011;6016;41.928;25.556;2023-03-01T02:28:32;11.80;;;7.13;;
11911;SDS011;6016;41.928;25.556;2023-03-01T02:31:02;13.10;;;7.13;;
11911;SDS011;6016;41.928;25.556;2023-03-01T02:33:48;15.07;;;7.45;;
11911;SDS011;6016;41.928;25.556;2023-03-01T02:36:17;15.77;;;7.47;;
11911;SDS011;6016;41.928;25.556;2023-03-01T02:38:46;14.20;;;7.72;;
11911;SDS011;6016;41.928;25.556;2023-03-01T02:41:14;14.23;;;7.90;;
11911;SDS011;6016;41.928;25.556;2023-03-01T02:43:44;16.52;;;8.07;;
11911;SDS011;6016;41.928;25.556;2023-03-01T02:46:14;17.88;;;8.52;;
11911;SDS011;6016;41.928;25.556;2023-03-01T02:48:42;18.25;;;9.68;;
11911;SDS011;6016;41.928;25.556;2023-03-01T02:51:15;20.55;;;10.23;;
11911;SDS011;6016;41.928;25.556;2023-03-01T02:54:06;24.75;;;10.75;;
11911;SDS011;6016;41.928;25.556;2023-03-01T02:56:39;27.48;;;12.15;;
11911;SDS011;6016;41.928;25.556;2023-03-01T02:59:08;34.35;;;14.10;;
11911;SDS011;6016;41.928;25.556;2023-03-01T03:01:36;33.60;;;13.70;;
11911;SDS011;6016;41.928;25.556;2023-03-01T03:04:03;38.38;;;15.38;;
11911;SDS011;6016;41.928;25.556;2023-03-01T03:06:31;43.45;;;15.93;;
11911;SDS011;6016;41.928;25.556;2023-03-01T03:08:58;47.35;;;17.42;;
11911;SDS011;6016;41.928;25.556;2023-03-01T03:11:26;55.28;;;17.33;;
11911;SDS011;6016;41.928;25.556;2023-03-01T03:13:52;51.65;;;17.50;;
11911;SDS011;6016;41.928;25.556;2023-03-01T03:16:21;51.13;;;16.77;;
11911;SDS011;6016;41.928;25.556;2023-03-01T03:18:48;48.20;;;16.42;;
11911;SDS011;6016;41.928;25.556;2023-03-01T03:21:15;52.22;;;16.50;;
11911;SDS011;6016;41.928;25.556;2023-03-01T03:23:42;63.55;;;17.92;;
11911;SDS011;6016;41.928;25.556;2023-03-01T03:26:09;64.20;;;17.52;;
11911;SDS011;6016;41.928;25.556;2023-03-01T03:28:38;65.30;;;19.15;;
11911;SDS011;6016;41.928;25.556;2023-03-01T03:31:05;54.42;;;17.67;;
11911;SDS011;6016;41.928;25.556;2023-03-01T03:33:34;42.40;;;15.05;;
11911;SDS011;6016;41.928;25.556;2023-03-01T03:36:01;38.10;;;13.65;;
11911;SDS011;6016;41.928;25.556;2023-03-01T03:38:28;26.65;;;10.50;;
11911;SDS011;6016;41.928;25.556;2023-03-01T03:40:59;26.60;;;10.95;;
11911;SDS011;6016;41.928;25.556;2023-03-01T03:43:27;21.33;;;10.75;;
11911;SDS011;6016;41.928;25.556;2023-03-01T03:45:54;23.25;;;11.20;;
11911;SDS011;6016;41.928;25.556;2023-03-01T03:48:22;22.23;;;10.73;;
11911;SDS011;6016;41.928;25.556;2023-03-01T03:50:51;24.20;;;10.27;;
11911;SDS011;6016;41.928;25.556;2023-03-01T03:53:19;18.27;;;9.48;;
11911;SDS011;6016;41.928;25.556;2023-03-01T03:55:46;20.55;;;8.80;;
11911;SDS011;6016;41.928;25.556;2023-03-01T03:58:14;15.90;;;8.60;;
11911;SDS011;6016;41.928;25.556;2023-03-01T04:00:45;21.88;;;9.98;;
11911;SDS011;6016;41.928;25.556;2023-03-01T04:03:13;22.02;;;10.00;;
11911;SDS011;6016;41.928;25.556;2023-03-01T04:05:42;25.80;;;10.82;;
11911;SDS011;6016;41.928;25.556;2023-03-01T04:08:10;27.88;;;11.82;;
11911;SDS011;6016;41.928;25.556;2023-03-01T04:10:38;35.55;;;14.45;;
11911;SDS011;6016;41.928;25.556;2023-03-01T04:13:08;40.60;;;13.98;;
11911;SDS011;6016;41.928;25.556;2023-03-01T04:15:37;44.55;;;15.63;;
11911;SDS011;6016;41.928;25.556;2023-03-01T04:18:04;44.92;;;16.73;;
11911;SDS011;6016;41.928;25.556;2023-03-01T04:20:32;53.08;;;18.80;;
11911;SDS011;6016;41.928;25.556;2023-03-01T04:23:00;47.13;;;18.48;;
11911;SDS011;6016;41.928;25.556;2023-03-01T04:25:37;59.67;;;19.48;;
11911;SDS011;6016;41.928;25.556;2023-03-01T04:28:04;48.45;;;18.23;;
11911;SDS011;6016;41.928;25.556;2023-03-01T04:30:31;51.35;;;17.65;;
11911;SDS011;6016;41.928;25.556;2023-03-01T04:33:01;57.20;;;19.10;;
11911;SDS011;6016;41.928;25.556;2023-03-01T04:35:29;55.60;;;19.48;;
11911;SDS011;6016;41.928;25.556;2023-03-01T04:37:56;56.88;;;20.13;;
11911;SDS011;6016;41.928;25.556;2023-03-01T04:40:23;52.95;;;17.95;;
11911;SDS011;6016;41.928;25.556;2023-03-01T04:42:52;61.25;;;20.92;;
11911;SDS011;6016;41.928;25.556;2023-03-01T04:45:19;53.40;;;19.42;;
11911;SDS011;6016;41.928;25.556;2023-03-01T04:47:46;70.00;;;22.50;;
11911;SDS011;6016;41.928;25.556;2023-03-01T04:50:14;66.57;;;21.98;;
11911;SDS011;6016;41.928;25.556;2023-03-01T04:52:45;68.57;;;22.37;;
11911;SDS011;6016;41.928;25.556;2023-03-01T04:55:13;58.45;;;20.55;;
11911;SDS011;6016;41.928;25.556;2023-03-01T04:57:40;56.10;;;18.98;;
11911;SDS011;6016;41.928;25.556;2023-03-01T05:00:10;70.45;;;22.35;;
11911;SDS011;6016;41.928;25.556;2023-03-01T05:02:49;67.88;;;21.20;;
11911;SDS011;6016;41.928;25.556;2023-03-01T05:05:23;60.00;;;21.17;;
11911;SDS011;6016;41.928;25.556;2023-03-01T05:07:52;64.38;;;19.20;;
11911;SDS011;6016;41.928;25.556;2023-03-01T05:10:20;61.72;;;21.40;;
11911;SDS011;6016;41.928;25.556;2023-03-01T05:12:47;66.13;;;19.83;;
11911;SDS011;6016;41.928;25.556;2023-03-01T05:15:15;70.95;;;20.75;;
11911;SDS011;6016;41.928;25.556;2023-03-01T05:17:42;75.57;;;19.83;;
11911;SDS011;6016;41.928;25.556;2023-03-01T05:20:10;77.00;;;21.90;;
11911;SDS011;6016;41.928;25.556;2023-03-01T05:22:37;67.97;;;20.42;;
11911;SDS011;6016;41.928;25.556;2023-03-01T05:25:04;50.47;;;16.80;;
11911;SDS011;6016;41.928;25.556;2023-03-01T05:27:33;48.78;;;16.55;;
11911;SDS011;6016;41.928;25.556;2023-03-01T05:30:00;50.38;;;17.00;;
11911;SDS011;6016;41.928;25.556;2023-03-01T05:32:39;50.42;;;16.48;;
11911;SDS011;6016;41.928;25.556;2023-03-01T05:35:08;48.28;;;16.48;;
11911;SDS011;6016;41.928;25.556;2023-03-01T05:37:38;48.22;;;16.77;;
11911;SDS011;6016;41.928;25.556;2023-03-01T05:40:07;47.08;;;17.02;;
11911;SDS011;6016;41.928;25.556;2023-03-01T05:42:41;48.25;;;15.82;;
11911;SDS011;6016;41.928;25.556;2023-03-01T05:45:09;44.75;;;16.77;;
11911;SDS011;6016;41.928;25.556;2023-03-01T05:47:37;45.35;;;15.98;;
11911;SDS011;6016;41.928;25.556;2023-03-01T05:50:09;48.65;;;16.75;;
11911;SDS011;6016;41.928;25.556;2023-03-01T05:52:37;46.08;;;17.13;;
11911;SDS011;6016;41.928;25.556;2023-03-01T05:55:05;45.58;;;16.88;;
11911;SDS011;6016;41.928;25.556;2023-03-01T05:57:32;45.05;;;16.90;;
11911;SDS011;6016;41.928;25.556;2023-03-01T05:59:59;45.80;;;18.05;;
11911;SDS011;6016;41.928;25.556;2023-03-01T06:02:26;46.35;;;18.02;;
11911;SDS011;6016;41.928;25.556;2023-03-01T06:04:55;50.20;;;17.02;;
11911;SDS011;6016;41.928;25.556;2023-03-01T06:07:22;41.67;;;16.45;;
11911;SDS011;6016;41.928;25.556;2023-03-01T06:09:49;36.05;;;14.90;;
11911;SDS011;6016;41.928;25.556;2023-03-01T06:12:16;33.20;;;13.77;;
11911;SDS011;6016;41.928;25.556;2023-03-01T06:14:43;28.75;;;12.95;;
11911;SDS011;6016;41.928;25.556;2023-03-01T06:17:11;28.58;;;12.52;;
11911;SDS011;6016;41.928;25.556;2023-03-01T06:19:38;20.55;;;10.05;;
11911;SDS011;6016;41.928;25.556;2023-03-01T06:22:06;19.92;;;10.30;;
11911;SDS011;6016;41.928;25.556;2023-03-01T06:24:33;21.05;;;10.30;;
11911;SDS011;6016;41.928;25.556;2023-03-01T06:27:00;19.92;;;9.50;;
11911;SDS011;6016;41.928;25.556;2023-03-01T06:29:27;18.02;;;9.75;;
11911;SDS011;6016;41.928;25.556;2023-03-01T06:31:54;24.02;;;12.07;;
11911;SDS011;6016;41.928;25.556;2023-03-01T06:34:21;31.90;;;14.93;;
11911;SDS011;6016;41.928;25.556;2023-03-01T06:36:48;31.65;;;14.25;;
11911;SDS011;6016;41.928;25.556;2023-03-01T06:39:16;32.03;;;14.65;;
11911;SDS011;6016;41.928;25.556;2023-03-01T06:41:42;34.85;;;15.93;;
11911;SDS011;6016;41.928;25.556;2023-03-01T06:44:09;35.10;;;15.48;;
11911;SDS011;6016;41.928;25.556;2023-03-01T06:46:36;39.45;;;16.85;;
11911;SDS011;6016;41.928;25.556;2023-03-01T06:49:03;43.28;;;17.70;;
11911;SDS011;6016;41.928;25.556;2023-03-01T06:51:34;40.47;;;17.55;;
11911;SDS011;6016;41.928;25.556;2023-03-01T06:54:01;41.75;;;17.80;;
11911;SDS011;6016;41.928;25.556;2023-03-01T06:56:30;42.55;;;17.17;;
11911;SDS011;6016;41.928;25.556;2023-03-01T06:58:57;32.97;;;14.13;;
11911;SDS011;6016;41.928;25.556;2023-03-01T07:01:23;34.90;;;16.08;;
11911;SDS011;6016;41.928;25.556;2023-03-01T07:03:50;41.20;;;17.73;;
11911;SDS011;6016;41.928;25.556;2023-03-01T07:06:17;90.40;;;41.50;;
11911;SDS011;6016;41.928;25.556;2023-03-01T07:08:44;47.28;;;20.52;;
11911;SDS011;6016;41.928;25.556;2023-03-01T07:11:11;46.63;;;18.63;;
11911;SDS011;6016;41.928;25.556;2023-03-01T07:13:40;51.67;;;19.98;;
11911;SDS011;6016;41.928;25.556;2023-03-01T07:16:07;52.38;;;20.05;;
11911;SDS011;6016;41.928;25.556;2023-03-01T07:18:34;58.28;;;19.38;;
11911;SDS011;6016;41.928;25.556;2023-03-01T07:21:03;51.60;;;17.40;;
11911;SDS011;6016;41.928;25.556;2023-03-01T07:23:31;51.35;;;18.40;;
11911;SDS011;6016;41.928;25.556;2023-03-01T07:25:57;53.47;;;19.50;;
11911;SDS011;6016;41.928;25.556;2023-03-01T07:28:25;50.85;;;19.08;;
11911;SDS011;6016;41.928;25.556;2023-03-01T07:30:54;48.95;;;19.60;;
11911;SDS011;6016;41.928;25.556;2023-03-01T07:33:21;61.47;;;22.65;;
11911;SDS011;6016;41.928;25.556;2023-03-01T07:35:47;59.08;;;20.95;;
11911;SDS011;6016;41.928;25.556;2023-03-01T07:38:15;52.70;;;20.33;;
11911;SDS011;6016;41.928;25.556;2023-03-01T07:40:42;43.70;;;17.77;;
11911;SDS011;6016;41.928;25.556;2023-03-01T07:43:09;51.42;;;20.02;;
11911;SDS011;6016;41.928;25.556;2023-03-01T07:45:35;47.42;;;17.40;;
11911;SDS011;6016;41.928;25.556;2023-03-01T07:48:04;49.38;;;17.45;;
11911;SDS011;6016;41.928;25.556;2023-03-01T07:50:31;57.35;;;20.33;;
11911;SDS011;6016;41.928;25.556;2023-03-01T07:52:58;67.10;;;23.85;;
11911;SDS011;6016;41.928;25.556;2023-03-01T07:55:24;86.97;;;35.42;;
11911;SDS011;6016;41.928;25.556;2023-03-01T07:57:51;73.60;;;29.15;;
11911;SDS011;6016;41.928;25.556;2023-03-01T08:00:19;61.28;;;22.33;;
11911;SDS011;6016;41.928;25.556;2023-03-01T08:02:46;56.38;;;21.27;;
11911;SDS011;6016;41.928;25.556;2023-03-01T08:05:14;79.32;;;28.73;;
11911;SDS011;6016;41.928;25.556;2023-03-01T08:07:41;56.67;;;20.67;;
11911;SDS011;6016;41.928;25.556;2023-03-01T08:10:08;59.05;;;19.10;;
11911;SDS011;6016;41.928;25.556;2023-03-01T08:12:38;74.20;;;23.83;;
11911;SDS011;6016;41.928;25.556;2023-03-01T08:15:06;66.63;;;20.55;;
11911;SDS011;6016;41.928;25.556;2023-03-01T08:17:34;63.58;;;21.33;;
11911;SDS011;6016;41.928;25.556;2023-03-01T08:20:00;51.13;;;17.58;;
11911;SDS011;6016;41.928;25.556;2023-03-01T08:22:29;57.72;;;21.02;;
11911;SDS011;6016;41.928;25.556;2023-03-01T08:24:56;73.28;;;23.42;;
11911;SDS011;6016;41.928;25.556;2023-03-01T08:27:23;78.78;;;24.20;;
11911;SDS011;6016;41.928;25.556;2023-03-01T08:29:50;84.25;;;23.23;;
11911;SDS011;6016;41.928;25.556;2023-03-01T08:32:17;77.05;;;22.35;;
11911;SDS011;6016;41.928;25.556;2023-03-01T08:34:45;71.57;;;21.27;;
11911;SDS011;6016;41.928;25.556;2023-03-01T08:37:12;62.88;;;19.17;;
11911;SDS011;6016;41.928;25.556;2023-03-01T08:39:40;59.38;;;19.27;;
11911;SDS011;6016;41.928;25.556;2023-03-01T08:42:07;56.90;;;20.05;;
11911;SDS011;6016;41.928;25.556;2023-03-01T08:44:34;63.53;;;20.48;;
11911;SDS011;6016;41.928;25.556;2023-03-01T08:47:01;61.63;;;22.02;;
11911;SDS011;6016;41.928;25.556;2023-03-01T08:49:30;66.15;;;22.27;;
11911;SDS011;6016;41.928;25.556;2023-03-01T08:51:57;72.25;;;23.38;;
11911;SDS011;6016;41.928;25.556;2023-03-01T08:54:24;62.63;;;21.92;;
11911;SDS011;6016;41.928;25.556;2023-03-01T08:56:52;53.33;;;19.27;;
11911;SDS011;6016;41.928;25.556;2023-03-01T08:59:19;45.78;;;18.15;;
11911;SDS011;6016;41.928;25.556;2023-03-01T09:01:46;41.65;;;16.83;;
11911;SDS011;6016;41.928;25.556;2023-03-01T09:04:14;38.88;;;17.52;;
11911;SDS011;6016;41.928;25.556;2023-03-01T09:06:42;42.90;;;18.15;;
11911;SDS011;6016;41.928;25.556;2023-03-01T09:09:10;49.45;;;19.98;;
11911;SDS011;6016;41.928;25.556;2023-03-01T09:11:41;68.22;;;22.88;;
11911;SDS011;6016;41.928;25.556;2023-03-01T09:14:09;75.30;;;23.58;;
11911;SDS011;6016;41.928;25.556;2023-03-01T09:16:37;73.15;;;25.33;;
11911;SDS011;6016;41.928;25.556;2023-03-01T09:19:05;70.47;;;23.52;;
11911;SDS011;6016;41.928;25.556;2023-03-01T09:21:32;74.15;;;26.33;;
11911;SDS011;6016;41.928;25.556;2023-03-01T09:23:59;63.25;;;21.63;;
11911;SDS011;6016;41.928;25.556;2023-03-01T09:26:26;41.42;;;16.83;;
11911;SDS011;6016;41.928;25.556;2023-03-01T09:28:53;38.38;;;14.88;;
11911;SDS011;6016;41.928;25.556;2023-03-01T09:31:24;32.47;;;14.10;;
11911;SDS011;6016;41.928;25.556;2023-03-01T09:33:51;27.23;;;13.45;;
11911;SDS011;6016;41.928;25.556;2023-03-01T09:36:20;27.60;;;13.98;;
11911;SDS011;6016;41.928;25.556;2023-03-01T09:38:49;23.23;;;11.63;;
11911;SDS011;6016;41.928;25.556;2023-03-01T09:41:31;18.98;;;9.40;;
11911;SDS011;6016;41.928;25.556;2023-03-01T09:44:10;21.90;;;10.70;;
11911;SDS011;6016;41.928;25.556;2023-03-01T09:46:46;20.20;;;10.35;;
11911;SDS011;6016;41.928;25.556;2023-03-01T09:49:14;20.10;;;10.55;;
11911;SDS011;6016;41.928;25.556;2023-03-01T09:51:47;21.30;;;11.05;;
11911;SDS011;6016;41.928;25.556;2023-03-01T09:54:20;34.80;;;14.23;;
11911;SDS011;6016;41.928;25.556;2023-03-01T09:56:52;32.42;;;13.85;;
11911;SDS011;6016;41.928;25.556;2023-03-01T09:59:26;31.33;;;13.57;;
11911;SDS011;6016;41.928;25.556;2023-03-01T10:02:14;41.15;;;16.08;;
11911;SDS011;6016;41.928;25.556;2023-03-01T10:04:51;35.47;;;13.20;;
11911;SDS011;6016;41.928;25.556;2023-03-01T10:07:22;37.13;;;15.85;;
11911;SDS011;6016;41.928;25.556;2023-03-01T10:09:59;41.28;;;17.35;;
11911;SDS011;6016;41.928;25.556;2023-03-01T10:12:31;34.47;;;15.88;;
11911;SDS011;6016;41.928;25.556;2023-03-01T10:15:03;43.75;;;17.90;;
11911;SDS011;6016;41.928;25.556;2023-03-01T10:17:37;49.03;;;21.05;;
11911;SDS011;6016;41.928;25.556;2023-03-01T10:20:15;37.17;;;13.35;;
11911;SDS011;6016;41.928;25.556;2023-03-01T10:22:45;42.92;;;15.07;;
11911;SDS011;6016;41.928;25.556;2023-03-01T10:25:15;43.67;;;15.25;;
11911;SDS011;6016;41.928;25.556;2023-03-01T10:27:49;44.30;;;16.42;;
11911;SDS011;6016;41.928;25.556;2023-03-01T10:30:19;53.28;;;21.30;;
11911;SDS011;6016;41.928;25.556;2023-03-01T10:32:50;45.95;;;16.52;;
11911;SDS011;6016;41.928;25.556;2023-03-01T10:35:19;38.45;;;15.50;;
11911;SDS011;6016;41.928;25.556;2023-03-01T10:37:58;76.80;;;27.95;;
11911;SDS011;6016;41.928;25.556;2023-03-01T10:40:30;25.73;;;11.93;;
11911;SDS011;6016;41.928;25.556;2023-03-01T10:42:57;42.65;;;20.20;;
11911;SDS011;6016;41.928;25.556;2023-03-01T10:45:33;23.88;;;12.45;;
11911;SDS011;6016;41.928;25.556;2023-03-01T10:48:10;21.65;;;11.75;;
11911;SDS011;6016;41.928;25.556;2023-03-01T10:50:39;22.05;;;10.85;;
11911;SDS011;6016;41.928;25.556;2023-03-01T10:53:17;19.08;;;9.93;;
11911;SDS011;6016;41.928;25.556;2023-03-01T10:55:56;15.73;;;8.98;;
11911;SDS011;6016;41.928;25.556;2023-03-01T10:58:24;19.02;;;10.00;;
11911;SDS011;6016;41.928;25.556;2023-03-01T11:00:52;15.23;;;9.02;;
11911;SDS011;6016;41.928;25.556;2023-03-01T11:03:23;21.13;;;10.30;;
11911;SDS011;6016;41.928;25.556;2023-03-01T11:06:01;20.52;;;10.43;;
11911;SDS011;6016;41.928;25.556;2023-03-01T11:08:39;21.65;;;11.40;;
11911;SDS011;6016;41.928;25.556;2023-03-01T11:11:22;27.88;;;13.73;;
11911;SDS011;6016;41.928;25.556;2023-03-01T11:13:53;40.42;;;17.27;;
11911;SDS011;6016;41.928;25.556;2023-03-01T11:16:22;38.95;;;16.98;;
11911;SDS011;6016;41.928;25.556;2023-03-01T11:19:15;37.03;;;16.98;;
11911;SDS011;6016;41.928;25.556;2023-03-01T11:21:47;32.38;;;15.48;;
11911;SDS011;6016;41.928;25.556;2023-03-01T11:24:23;36.83;;;16.38;;
11911;SDS011;6016;41.928;25.556;2023-03-01T11:26:55;27.55;;;13.27;;
11911;SDS011;6016;41.928;25.556;2023-03-01T11:29:27;31.98;;;13.90;;
11911;SDS011;6016;41.928;25.556;2023-03-01T11:31:58;32.58;;;14.52;;
11911;SDS011;6016;41.928;25.556;2023-03-01T11:34:40;31.48;;;13.40;;
11911;SDS011;6016;41.928;25.556;2023-03-01T11:37:12;21.55;;;11.27;;
11911;SDS011;6016;41.928;25.556;2023-03-01T11:39:51;21.15;;;11.52;;
11911;SDS011;6016;41.928;25.556;2023-03-01T11:42:25;24.48;;;12.77;;
11911;SDS011;6016;41.928;25.556;2023-03-01T11:45:02;25.90;;;11.60;;
11911;SDS011;6016;41.928;25.556;2023-03-01T11:47:39;27.85;;;12.02;;
11911;SDS011;6016;41.928;25.556;2023-03-01T11:50:21;21.52;;;10.45;;
11911;SDS011;6016;41.928;25.556;2023-03-01T11:53:02;26.02;;;12.35;;
11911;SDS011;6016;41.928;25.556;2023-03-01T11:55:46;22.80;;;11.18;;
11911;SDS011;6016;41.928;25.556;2023-03-01T12:04:16;25.65;;;12.52;;
11911;SDS011;6016;41.928;25.556;2023-03-01T12:07:02;29.70;;;14.15;;
11911;SDS011;6016;41.928;25.556;2023-03-01T12:09:48;31.30;;;15.63;;
11911;SDS011;6016;41.928;25.556;2023-03-01T12:12:27;32.85;;;14.95;;
11911;SDS011;6016;41.928;25.556;2023-03-01T12:18:16;34.60;;;15.05;;
11911;SDS011;6016;41.928;25.556;2023-03-01T12:21:09;40.85;;;17.25;;
11911;SDS011;6016;41.928;25.556;2023-03-01T12:23:54;24.67;;;12.80;;
11911;SDS011;6016;41.928;25.556;2023-03-01T12:26:38;22.90;;;12.40;;
11911;SDS011;6016;41.928;25.556;2023-03-01T12:29:17;20.33;;;10.98;;
11911;SDS011;6016;41.928;25.556;2023-03-01T12:35:04;25.83;;;13.10;;
11911;SDS011;6016;41.928;25.556;2023-03-01T12:37:51;26.77;;;13.43;;
11911;SDS011;6016;41.928;25.556;2023-03-01T12:40:37;27.63;;;14.18;;
11911;SDS011;6016;41.928;25.556;2023-03-01T12:43:21;25.88;;;13.23;;
11911;SDS011;6016;41.928;25.556;2023-03-01T12:45:59;24.70;;;12.05;;
11911;SDS011;6016;41.928;25.556;2023-03-01T12:48:39;29.42;;;13.30;;
11911;SDS011;6016;41.928;25.556;2023-03-01T12:51:13;26.83;;;13.02;;
11911;SDS011;6016;41.928;25.556;2023-03-01T12:53:43;33.50;;;15.65;;
11911;SDS011;6016;41.928;25.556;2023-03-01T12:56:15;30.10;;;15.52;;
11911;SDS011;6016;41.928;25.556;2023-03-01T12:58:46;34.15;;;16.90;;
11911;SDS011;6016;41.928;25.556;2023-03-01T13:01:22;34.65;;;16.30;;
11911;SDS011;6016;41.928;25.556;2023-03-01T13:04:02;39.75;;;17.17;;
11911;SDS011;6016;41.928;25.556;2023-03-01T13:06:40;68.53;;;31.98;;
11911;SDS011;6016;41.928;25.556;2023-03-01T13:09:14;170.77;;;80.57;;
11911;SDS011;6016;41.928;25.556;2023-03-01T13:11:52;55.55;;;22.58;;
11911;SDS011;6016;41.928;25.556;2023-03-01T13:14:43;38.28;;;17.25;;
11911;SDS011;6016;41.928;25.556;2023-03-01T13:17:31;34.10;;;16.45;;
11911;SDS011;6016;41.928;25.556;2023-03-01T13:20:11;34.00;;;15.18;;
11911;SDS011;6016;41.928;25.556;2023-03-01T13:22:40;28.73;;;14.02;;
11911;SDS011;6016;41.928;25.556;2023-03-01T13:25:16;32.33;;;15.65;;
11911;SDS011;6016;41.928;25.556;2023-03-01T13:27:46;28.15;;;14.00;;
11911;SDS011;6016;41.928;25.556;2023-03-01T13:36:11;27.75;;;13.27;;
11911;SDS011;6016;41.928;25.556;2023-03-01T13:39:27;32.60;;;14.32;;
11911;SDS011;6016;41.928;25.556;2023-03-01T13:41:57;37.95;;;15.18;;
11911;SDS011;6016;41.928;25.556;2023-03-01T13:44:28;34.35;;;15.10;;
11911;SDS011;6016;41.928;25.556;2023-03-01T13:46:59;31.48;;;15.60;;
11911;SDS011;6016;41.928;25.556;2023-03-01T13:49:36;32.63;;;15.77;;
11911;SDS011;6016;41.928;25.556;2023-03-01T13:52:14;28.13;;;14.20;;
11911;SDS011;6016;41.928;25.556;2023-03-01T13:54:55;29.63;;;14.48;;
11911;SDS011;6016;41.928;25.556;2023-03-01T13:57:24;27.08;;;12.73;;
11911;SDS011;6016;41.928;25.556;2023-03-01T13:59:58;27.17;;;13.88;;
11911;SDS011;6016;41.928;25.556;2023-03-01T14:02:25;29.08;;;13.63;;
11911;SDS011;6016;41.928;25.556;2023-03-01T14:04:58;26.60;;;13.38;;
11911;SDS011;6016;41.928;25.556;2023-03-01T14:07:27;32.40;;;15.20;;
11911;SDS011;6016;41.928;25.556;2023-03-01T14:09:56;37.80;;;19.08;;
11911;SDS011;6016;41.928;25.556;2023-03-01T14:12:27;42.72;;;27.30;;
11911;SDS011;6016;41.928;25.556;2023-03-01T14:15:08;29.52;;;16.08;;
11911;SDS011;6016;41.928;25.556;2023-03-01T14:17:55;52.47;;;23.33;;
11911;SDS011;6016;41.928;25.556;2023-03-01T14:20:32;30.00;;;14.68;;
11911;SDS011;6016;41.928;25.556;2023-03-01T14:23:08;28.58;;;16.05;;
11911;SDS011;6016;41.928;25.556;2023-03-01T14:28:11;36.35;;;17.67;;
11911;SDS011;6016;41.928;25.556;2023-03-01T14:30:43;44.72;;;21.48;;
11911;SDS011;6016;41.928;25.556;2023-03-01T14:33:18;39.95;;;20.27;;
11911;SDS011;6016;41.928;25.556;2023-03-01T14:35:54;44.67;;;21.45;;
11911;SDS011;6016;41.928;25.556;2023-03-01T14:38:23;35.33;;;17.95;;
11911;SDS011;6016;41.928;25.556;2023-03-01T14:40:57;38.05;;;18.45;;
11911;SDS011;6016;41.928;25.556;2023-03-01T14:43:26;46.53;;;19.55;;
11911;SDS011;6016;41.928;25.556;2023-03-01T14:45:57;54.35;;;26.50;;
11911;SDS011;6016;41.928;25.556;2023-03-01T14:48:24;37.25;;;18.48;;
11911;SDS011;6016;41.928;25.556;2023-03-01T14:50:53;27.45;;;13.68;;
11911;SDS011;6016;41.928;25.556;2023-03-01T14:53:21;38.80;;;20.63;;
11911;SDS011;6016;41.928;25.556;2023-03-01T14:55:52;36.70;;;17.13;;
11911;SDS011;6016;41.928;25.556;2023-03-01T14:58:21;28.08;;;14.40;;
11911;SDS011;6016;41.928;25.556;2023-03-01T15:00:51;30.20;;;15.55;;
11911;SDS011;6016;41.928;25.556;2023-03-01T15:03:23;33.75;;;16.38;;
11911;SDS011;6016;41.928;25.556;2023-03-01T15:05:54;31.58;;;15.85;;
11911;SDS011;6016;41.928;25.556;2023-03-01T15:08:22;31.17;;;16.38;;